Vårt webkamera more information My webcam


webkamera på Randaberg more information webcam on Randaberg


Lynradar more information blitzortung!


Nedbørsradar  rain snow radar


Besøk vår andre værside:

Alternativ webside

Alternativ mobil

Regnskvett RandabergWebsite of another weatherstation



Ikke nødvendig med spesiell oppmerksomhet.    Det er ingen advarsler

Nære METAR rapporter

   
ENHD - Haugesund
oppdatert: 16-01-2019 02:20
yr  
yr  
   Vind: SSØ 4.1 m/s
Vind: SSØ 4.1 m/s
Sikt: More than 10 km
ENHD 160120Z AUTO 16008KT 9999 DZ ///023/// 04/02 Q0993
ENZV - Randaberg
oppdatert: 16-01-2019 02:20
Lett regn, Overskyet  
Lett regn, Overskyet  
   Vind: SSØ 4.1 m/s
Vind: SSØ 4.1 m/s
Temperatur: 4°C
Wind Chill: 1°C
Duggpunkt: 3°C
Fuktighet: 93%
Barometer: 994 hPa
Skyer: Overskyet
Sikt: 9 km
Skydetaljer: Delvis Skyet 518.2 m,
Overskyet 1005.8 m
ENZV 160120Z 15008KT 9000 -RA SCT017 OVC033 04/03 Q0994
ENBR - Bergen
oppdatert: 16-01-2019 01:50
Lett regn, For det meste skyet  
Lett regn, For det meste skyet  
   Vind: varierer 2.6 m/s
Vind: varierer 2.6 m/s
Temperatur: 3°C
Wind Chill: 1°C
Duggpunkt: 2°C
Fuktighet: 93%
Barometer: 993 hPa
Skyer: For det meste skyet
Sikt: More than 10 km
Skydetaljer: få skyer 182.9 m,
Delvis Skyet 304.8 m,
For det meste skyet 823 m
ENBR 160050Z VRB05KT 9999 -RA FEW006 SCT010 BKN027 03/02 Q0993 RMK WIND 1200FT 14012KT
ENCN - Kristiansand
oppdatert: 16-01-2019 02:20
Light Freezing, Regn  
Light Freezing, Regn  
   Vind: ØNØ 1.5 m/s
Vind: ØNØ 1.5 m/s
Sikt: 7 km
ENCN 160120Z AUTO 07003KT 7000 -FZRA ///033/// M00/M00 Q0997
ENGM - Oslo
oppdatert: 16-01-2019 02:20
For det meste skyet  
For det meste skyet  
   Vind: Stille
Vind: Stille
Temperatur: -10°C
Duggpunkt: -11°C
Fuktighet: 92%
Barometer: 997 hPa
Skyer: For det meste skyet
Sikt: More than 10 km
Skydetaljer: Delvis Skyet 335.3 m,
For det meste skyet 1280.2 m
ENGM 160120Z 00000KT 9999 SCT011 BKN042 M10/M11 Q0997
ENVA - Trondheim
oppdatert: 16-01-2019 02:20
Klart  
Klart  
   Vind: SØ 5.1 m/s
Vind: SØ 5.1 m/s
Temperatur: -12°C
Wind Chill: -20°C
Duggpunkt: -14°C
Fuktighet: 85%
Barometer: 996 hPa
Sikt: More than 10 km
Skydetaljer: Klart
ENVA 160120Z 13010KT CAVOK M12/M14 Q0996 RMK WIND 670FT 10007KT

Script utviklet av  Saratoga-weather.org Tilrettelagt for malen av  Weerstation Leuven

Du finner vår vær info også på:

European Weather Network

WeatherCloud

Weather Underground

Citizen Weather Observer Program (CWOP)

Utstyr vi bruker:

Værstsjon
Oregon scientific WMR 300

Værprogram
Meteobridge

Oregon scientific WMR 300

Meteobridge